sensor_id;sensor_type;location;lat;lon;timestamp;temperature;humidity
24226;DHT22;51462;51.422;5.514;2023-08-24T00:00:04;21.70;99.90
24226;DHT22;51462;51.422;5.514;2023-08-24T00:02:30;21.60;99.90
24226;DHT22;51462;51.422;5.514;2023-08-24T00:04:55;21.20;99.90
24226;DHT22;51462;51.422;5.514;2023-08-24T00:07:21;21.10;99.90
24226;DHT22;51462;51.422;5.514;2023-08-24T00:09:47;21.20;99.90
24226;DHT22;51462;51.422;5.514;2023-08-24T00:12:13;21.10;99.90
24226;DHT22;51462;51.422;5.514;2023-08-24T00:14:38;21.00;99.90
24226;DHT22;51462;51.422;5.514;2023-08-24T00:17:04;20.90;99.90
24226;DHT22;51462;51.422;5.514;2023-08-24T00:19:30;20.80;99.90
24226;DHT22;51462;51.422;5.514;2023-08-24T00:21:55;21.00;99.90
24226;DHT22;51462;51.422;5.514;2023-08-24T00:24:21;21.00;99.90
24226;DHT22;51462;51.422;5.514;2023-08-24T00:26:46;21.00;99.90
24226;DHT22;51462;51.422;5.514;2023-08-24T00:29:12;21.10;99.90
24226;DHT22;51462;51.422;5.514;2023-08-24T00:31:37;20.90;99.90
24226;DHT22;51462;51.422;5.514;2023-08-24T00:34:03;20.90;99.90
24226;DHT22;51462;51.422;5.514;2023-08-24T00:36:28;21.00;99.90
24226;DHT22;51462;51.422;5.514;2023-08-24T00:38:54;20.90;99.90
24226;DHT22;51462;51.422;5.514;2023-08-24T00:41:19;20.90;99.90
24226;DHT22;51462;51.422;5.514;2023-08-24T00:43:46;20.90;99.90
24226;DHT22;51462;51.422;5.514;2023-08-24T00:46:12;20.70;99.90
24226;DHT22;51462;51.422;5.514;2023-08-24T00:48:38;20.60;99.90
24226;DHT22;51462;51.422;5.514;2023-08-24T00:51:03;20.50;99.90
24226;DHT22;51462;51.422;5.514;2023-08-24T00:53:29;20.50;99.90
24226;DHT22;51462;51.422;5.514;2023-08-24T00:55:55;20.50;99.90
24226;DHT22;51462;51.422;5.514;2023-08-24T00:58:21;20.50;99.90
24226;DHT22;51462;51.422;5.514;2023-08-24T01:00:47;20.40;99.90
24226;DHT22;51462;51.422;5.514;2023-08-24T01:03:13;20.50;99.90
24226;DHT22;51462;51.422;5.514;2023-08-24T01:05:39;20.60;99.90
24226;DHT22;51462;51.422;5.514;2023-08-24T01:08:04;20.60;99.90
24226;DHT22;51462;51.422;5.514;2023-08-24T01:10:34;20.50;99.90
24226;DHT22;51462;51.422;5.514;2023-08-24T01:13:07;20.30;99.90
24226;DHT22;51462;51.422;5.514;2023-08-24T01:18:05;20.40;99.90
24226;DHT22;51462;51.422;5.514;2023-08-24T01:20:31;20.50;99.90
24226;DHT22;51462;51.422;5.514;2023-08-24T01:23:04;20.40;99.90
24226;DHT22;51462;51.422;5.514;2023-08-24T01:27:58;20.50;99.90
24226;DHT22;51462;51.422;5.514;2023-08-24T01:30:24;20.30;99.90
24226;DHT22;51462;51.422;5.514;2023-08-24T01:32:50;20.20;99.90
24226;DHT22;51462;51.422;5.514;2023-08-24T01:35:15;20.30;99.90
24226;DHT22;51462;51.422;5.514;2023-08-24T01:37:41;20.40;99.90
24226;DHT22;51462;51.422;5.514;2023-08-24T01:40:10;20.30;99.90
24226;DHT22;51462;51.422;5.514;2023-08-24T01:45:12;20.40;99.90
24226;DHT22;51462;51.422;5.514;2023-08-24T01:47:39;20.20;99.90
24226;DHT22;51462;51.422;5.514;2023-08-24T01:50:06;20.10;99.90
24226;DHT22;51462;51.422;5.514;2023-08-24T01:52:32;20.10;99.90
24226;DHT22;51462;51.422;5.514;2023-08-24T01:54:58;20.20;99.90
24226;DHT22;51462;51.422;5.514;2023-08-24T01:57:24;20.10;99.90
24226;DHT22;51462;51.422;5.514;2023-08-24T01:59:50;20.10;99.90
24226;DHT22;51462;51.422;5.514;2023-08-24T02:02:16;20.00;99.90
24226;DHT22;51462;51.422;5.514;2023-08-24T02:04:42;19.90;99.90
24226;DHT22;51462;51.422;5.514;2023-08-24T02:07:07;20.00;99.90
24226;DHT22;51462;51.422;5.514;2023-08-24T02:09:33;20.10;99.90
24226;DHT22;51462;51.422;5.514;2023-08-24T02:11:59;20.00;99.90
24226;DHT22;51462;51.422;5.514;2023-08-24T02:14:24;20.20;99.90
24226;DHT22;51462;51.422;5.514;2023-08-24T02:16:50;20.30;99.90
24226;DHT22;51462;51.422;5.514;2023-08-24T02:19:15;20.40;99.90
24226;DHT22;51462;51.422;5.514;2023-08-24T02:21:41;20.30;99.90
24226;DHT22;51462;51.422;5.514;2023-08-24T02:24:06;20.30;99.90
24226;DHT22;51462;51.422;5.514;2023-08-24T02:26:32;20.30;99.90
24226;DHT22;51462;51.422;5.514;2023-08-24T02:28:57;20.20;99.90
24226;DHT22;51462;51.422;5.514;2023-08-24T02:31:23;20.30;99.90
24226;DHT22;51462;51.422;5.514;2023-08-24T02:33:48;20.20;99.90
24226;DHT22;51462;51.422;5.514;2023-08-24T02:36:14;20.30;99.90
24226;DHT22;51462;51.422;5.514;2023-08-24T02:38:40;20.20;99.90
24226;DHT22;51462;51.422;5.514;2023-08-24T02:41:06;20.20;99.90
24226;DHT22;51462;51.422;5.514;2023-08-24T02:43:32;20.40;99.90
24226;DHT22;51462;51.422;5.514;2023-08-24T02:46:01;20.30;99.90
24226;DHT22;51462;51.422;5.514;2023-08-24T02:48:27;20.40;99.90
24226;DHT22;51462;51.422;5.514;2023-08-24T02:50:52;20.30;99.90
24226;DHT22;51462;51.422;5.514;2023-08-24T02:53:18;20.50;99.90
24226;DHT22;51462;51.422;5.514;2023-08-24T02:55:43;20.60;99.90
24226;DHT22;51462;51.422;5.514;2023-08-24T02:58:09;20.70;99.90
24226;DHT22;51462;51.422;5.514;2023-08-24T03:00:34;20.50;99.90
24226;DHT22;51462;51.422;5.514;2023-08-24T03:03:03;20.60;99.90
24226;DHT22;51462;51.422;5.514;2023-08-24T03:05:31;20.70;99.90
24226;DHT22;51462;51.422;5.514;2023-08-24T03:07:57;21.00;99.90
24226;DHT22;51462;51.422;5.514;2023-08-24T03:10:23;20.90;99.90
24226;DHT22;51462;51.422;5.514;2023-08-24T03:12:49;20.70;99.90
24226;DHT22;51462;51.422;5.514;2023-08-24T03:15:14;20.90;99.90
24226;DHT22;51462;51.422;5.514;2023-08-24T03:17:40;21.40;99.90
24226;DHT22;51462;51.422;5.514;2023-08-24T03:20:05;21.60;99.90
24226;DHT22;51462;51.422;5.514;2023-08-24T03:22:31;21.60;99.90
24226;DHT22;51462;51.422;5.514;2023-08-24T03:24:56;21.50;99.90
24226;DHT22;51462;51.422;5.514;2023-08-24T03:27:22;21.50;99.90
24226;DHT22;51462;51.422;5.514;2023-08-24T03:29:47;21.50;99.90
24226;DHT22;51462;51.422;5.514;2023-08-24T03:32:13;21.50;99.90
24226;DHT22;51462;51.422;5.514;2023-08-24T03:34:38;21.40;99.90
24226;DHT22;51462;51.422;5.514;2023-08-24T03:37:05;21.50;99.90
24226;DHT22;51462;51.422;5.514;2023-08-24T03:39:30;21.40;99.90
24226;DHT22;51462;51.422;5.514;2023-08-24T03:41:56;21.60;99.90
24226;DHT22;51462;51.422;5.514;2023-08-24T03:44:21;21.80;99.90
24226;DHT22;51462;51.422;5.514;2023-08-24T03:46:47;21.90;99.90
24226;DHT22;51462;51.422;5.514;2023-08-24T03:49:12;22.10;99.90
24226;DHT22;51462;51.422;5.514;2023-08-24T03:51:37;22.10;99.90
24226;DHT22;51462;51.422;5.514;2023-08-24T03:54:03;22.10;99.90
24226;DHT22;51462;51.422;5.514;2023-08-24T03:56:30;21.90;99.90
24226;DHT22;51462;51.422;5.514;2023-08-24T03:58:56;22.00;99.90
24226;DHT22;51462;51.422;5.514;2023-08-24T04:01:21;22.00;99.90
24226;DHT22;51462;51.422;5.514;2023-08-24T04:03:47;22.10;99.90
24226;DHT22;51462;51.422;5.514;2023-08-24T04:06:13;22.00;99.90
24226;DHT22;51462;51.422;5.514;2023-08-24T04:08:38;22.00;99.90
24226;DHT22;51462;51.422;5.514;2023-08-24T04:11:04;22.00;99.90
24226;DHT22;51462;51.422;5.514;2023-08-24T04:13:29;21.90;99.90
24226;DHT22;51462;51.422;5.514;2023-08-24T04:15:55;21.90;99.90
24226;DHT22;51462;51.422;5.514;2023-08-24T04:18:20;21.90;99.90
24226;DHT22;51462;51.422;5.514;2023-08-24T04:20:46;21.60;99.90
24226;DHT22;51462;51.422;5.514;2023-08-24T04:23:12;21.40;99.90
24226;DHT22;51462;51.422;5.514;2023-08-24T04:25:41;20.90;99.90
24226;DHT22;51462;51.422;5.514;2023-08-24T04:28:06;20.60;99.90
24226;DHT22;51462;51.422;5.514;2023-08-24T04:30:32;20.70;99.90
24226;DHT22;51462;51.422;5.514;2023-08-24T04:32:58;20.60;99.90
24226;DHT22;51462;51.422;5.514;2023-08-24T04:35:25;20.40;99.90
24226;DHT22;51462;51.422;5.514;2023-08-24T04:37:51;20.40;99.90
24226;DHT22;51462;51.422;5.514;2023-08-24T04:40:16;20.40;99.90
24226;DHT22;51462;51.422;5.514;2023-08-24T04:42:42;20.50;99.90
24226;DHT22;51462;51.422;5.514;2023-08-24T04:45:07;20.60;99.90
24226;DHT22;51462;51.422;5.514;2023-08-24T04:47:33;20.60;99.90
24226;DHT22;51462;51.422;5.514;2023-08-24T04:49:58;20.90;99.90
24226;DHT22;51462;51.422;5.514;2023-08-24T04:52:24;20.80;99.90
24226;DHT22;51462;51.422;5.514;2023-08-24T04:54:49;20.70;99.90
24226;DHT22;51462;51.422;5.514;2023-08-24T04:57:15;20.70;99.90
24226;DHT22;51462;51.422;5.514;2023-08-24T04:59:40;20.60;99.90
24226;DHT22;51462;51.422;5.514;2023-08-24T05:02:06;20.60;99.90
24226;DHT22;51462;51.422;5.514;2023-08-24T05:04:31;20.70;99.90
24226;DHT22;51462;51.422;5.514;2023-08-24T05:06:57;20.80;99.90
24226;DHT22;51462;51.422;5.514;2023-08-24T05:09:22;20.50;99.90
24226;DHT22;51462;51.422;5.514;2023-08-24T05:11:48;20.60;99.90
24226;DHT22;51462;51.422;5.514;2023-08-24T05:14:13;20.60;99.90
24226;DHT22;51462;51.422;5.514;2023-08-24T05:16:39;20.60;99.90
24226;DHT22;51462;51.422;5.514;2023-08-24T05:19:04;20.60;99.90
24226;DHT22;51462;51.422;5.514;2023-08-24T05:21:30;20.60;99.90
24226;DHT22;51462;51.422;5.514;2023-08-24T05:23:55;20.40;99.90
24226;DHT22;51462;51.422;5.514;2023-08-24T05:26:21;20.40;99.90
24226;DHT22;51462;51.422;5.514;2023-08-24T05:28:49;20.40;99.90
24226;DHT22;51462;51.422;5.514;2023-08-24T05:31:15;20.60;99.90
24226;DHT22;51462;51.422;5.514;2023-08-24T05:33:41;20.60;99.90
24226;DHT22;51462;51.422;5.514;2023-08-24T05:36:06;20.70;99.90
24226;DHT22;51462;51.422;5.514;2023-08-24T05:38:32;20.80;99.90
24226;DHT22;51462;51.422;5.514;2023-08-24T05:40:59;20.70;99.90
24226;DHT22;51462;51.422;5.514;2023-08-24T05:43:24;20.80;99.90
24226;DHT22;51462;51.422;5.514;2023-08-24T05:45:50;20.90;99.90
24226;DHT22;51462;51.422;5.514;2023-08-24T05:48:15;20.90;99.90
24226;DHT22;51462;51.422;5.514;2023-08-24T05:50:44;21.00;99.90
24226;DHT22;51462;51.422;5.514;2023-08-24T05:53:10;20.90;99.90
24226;DHT22;51462;51.422;5.514;2023-08-24T05:55:36;20.80;99.90
24226;DHT22;51462;51.422;5.514;2023-08-24T05:58:02;20.70;99.90
24226;DHT22;51462;51.422;5.514;2023-08-24T06:00:27;20.80;99.90
24226;DHT22;51462;51.422;5.514;2023-08-24T06:02:53;20.70;99.90
24226;DHT22;51462;51.422;5.514;2023-08-24T06:05:18;20.80;99.90
24226;DHT22;51462;51.422;5.514;2023-08-24T06:07:44;20.70;99.90
24226;DHT22;51462;51.422;5.514;2023-08-24T06:10:11;20.80;99.90
24226;DHT22;51462;51.422;5.514;2023-08-24T06:12:37;20.70;99.90
24226;DHT22;51462;51.422;5.514;2023-08-24T06:15:03;20.70;99.90
24226;DHT22;51462;51.422;5.514;2023-08-24T06:17:30;20.70;99.90
24226;DHT22;51462;51.422;5.514;2023-08-24T06:19:55;20.60;99.90
24226;DHT22;51462;51.422;5.514;2023-08-24T06:22:21;20.70;99.90
24226;DHT22;51462;51.422;5.514;2023-08-24T06:24:46;20.70;99.90
24226;DHT22;51462;51.422;5.514;2023-08-24T06:27:12;20.80;99.90
24226;DHT22;51462;51.422;5.514;2023-08-24T06:29:37;20.80;99.90
24226;DHT22;51462;51.422;5.514;2023-08-24T06:32:03;20.80;99.90
24226;DHT22;51462;51.422;5.514;2023-08-24T06:34:28;20.70;99.90
24226;DHT22;51462;51.422;5.514;2023-08-24T06:36:54;20.80;99.90
24226;DHT22;51462;51.422;5.514;2023-08-24T06:39:19;20.60;99.90
24226;DHT22;51462;51.422;5.514;2023-08-24T06:41:45;20.70;99.90
24226;DHT22;51462;51.422;5.514;2023-08-24T06:44:10;20.80;99.90
24226;DHT22;51462;51.422;5.514;2023-08-24T06:46:36;20.80;99.90
24226;DHT22;51462;51.422;5.514;2023-08-24T06:49:01;20.90;99.90
24226;DHT22;51462;51.422;5.514;2023-08-24T06:51:27;20.90;99.90
24226;DHT22;51462;51.422;5.514;2023-08-24T06:53:53;21.00;99.90
24226;DHT22;51462;51.422;5.514;2023-08-24T06:56:18;21.00;99.90
24226;DHT22;51462;51.422;5.514;2023-08-24T06:58:44;21.00;99.90
24226;DHT22;51462;51.422;5.514;2023-08-24T07:01:10;21.00;99.90
24226;DHT22;51462;51.422;5.514;2023-08-24T07:03:36;21.20;99.90
24226;DHT22;51462;51.422;5.514;2023-08-24T07:06:02;21.30;99.90
24226;DHT22;51462;51.422;5.514;2023-08-24T07:08:27;21.30;99.90
24226;DHT22;51462;51.422;5.514;2023-08-24T07:10:53;21.30;99.90
24226;DHT22;51462;51.422;5.514;2023-08-24T07:13:18;21.30;99.90
24226;DHT22;51462;51.422;5.514;2023-08-24T07:15:44;21.40;99.90
24226;DHT22;51462;51.422;5.514;2023-08-24T07:18:11;21.40;99.90
24226;DHT22;51462;51.422;5.514;2023-08-24T07:20:36;21.50;99.90
24226;DHT22;51462;51.422;5.514;2023-08-24T07:23:02;21.50;99.90
24226;DHT22;51462;51.422;5.514;2023-08-24T07:25:28;21.40;99.90
24226;DHT22;51462;51.422;5.514;2023-08-24T07:27:53;21.50;99.90
24226;DHT22;51462;51.422;5.514;2023-08-24T07:30:26;21.50;99.90
24226;DHT22;51462;51.422;5.514;2023-08-24T07:32:52;21.50;99.90
24226;DHT22;51462;51.422;5.514;2023-08-24T07:35:18;21.50;99.90
24226;DHT22;51462;51.422;5.514;2023-08-24T07:37:44;21.60;99.90
24226;DHT22;51462;51.422;5.514;2023-08-24T07:40:09;21.60;99.90
24226;DHT22;51462;51.422;5.514;2023-08-24T07:42:45;21.60;99.90
24226;DHT22;51462;51.422;5.514;2023-08-24T07:45:11;21.60;99.90
24226;DHT22;51462;51.422;5.514;2023-08-24T07:47:37;21.70;99.90
24226;DHT22;51462;51.422;5.514;2023-08-24T07:50:02;21.70;99.90
24226;DHT22;51462;51.422;5.514;2023-08-24T07:52:28;21.80;99.90
24226;DHT22;51462;51.422;5.514;2023-08-24T07:54:54;21.80;99.90
24226;DHT22;51462;51.422;5.514;2023-08-24T07:57:20;21.80;99.90
24226;DHT22;51462;51.422;5.514;2023-08-24T07:59:46;21.80;99.90
24226;DHT22;51462;51.422;5.514;2023-08-24T08:02:12;21.90;99.90
24226;DHT22;51462;51.422;5.514;2023-08-24T08:04:37;21.90;99.90
24226;DHT22;51462;51.422;5.514;2023-08-24T08:07:02;22.00;99.90
24226;DHT22;51462;51.422;5.514;2023-08-24T08:09:28;22.00;99.90
24226;DHT22;51462;51.422;5.514;2023-08-24T08:11:53;22.00;99.90
24226;DHT22;51462;51.422;5.514;2023-08-24T08:14:19;22.10;99.90
24226;DHT22;51462;51.422;5.514;2023-08-24T08:16:45;22.10;99.90
24226;DHT22;51462;51.422;5.514;2023-08-24T08:19:10;22.20;99.90
24226;DHT22;51462;51.422;5.514;2023-08-24T08:21:36;22.20;99.90
24226;DHT22;51462;51.422;5.514;2023-08-24T08:24:01;22.20;99.90
24226;DHT22;51462;51.422;5.514;2023-08-24T08:26:27;22.30;99.90
24226;DHT22;51462;51.422;5.514;2023-08-24T08:28:52;22.30;99.90
24226;DHT22;51462;51.422;5.514;2023-08-24T08:31:18;22.30;99.90
24226;DHT22;51462;51.422;5.514;2023-08-24T08:33:43;22.50;99.90
24226;DHT22;51462;51.422;5.514;2023-08-24T08:36:09;22.50;99.90
24226;DHT22;51462;51.422;5.514;2023-08-24T08:38:34;22.60;99.90
24226;DHT22;51462;51.422;5.514;2023-08-24T08:41:03;22.60;99.90
24226;DHT22;51462;51.422;5.514;2023-08-24T08:43:29;22.70;99.90
24226;DHT22;51462;51.422;5.514;2023-08-24T08:45:58;22.80;99.90
24226;DHT22;51462;51.422;5.514;2023-08-24T08:48:23;22.70;99.90
24226;DHT22;51462;51.422;5.514;2023-08-24T08:50:49;22.80;99.90
24226;DHT22;51462;51.422;5.514;2023-08-24T08:53:15;22.90;99.90
24226;DHT22;51462;51.422;5.514;2023-08-24T08:55:41;22.90;99.90
24226;DHT22;51462;51.422;5.514;2023-08-24T08:58:06;22.90;99.90
24226;DHT22;51462;51.422;5.514;2023-08-24T09:00:33;23.00;99.90
24226;DHT22;51462;51.422;5.514;2023-08-24T09:02:59;23.10;99.90
24226;DHT22;51462;51.422;5.514;2023-08-24T09:05:25;23.10;99.90
24226;DHT22;51462;51.422;5.514;2023-08-24T09:07:51;23.20;99.90
24226;DHT22;51462;51.422;5.514;2023-08-24T09:10:18;23.20;99.90
24226;DHT22;51462;51.422;5.514;2023-08-24T09:12:43;23.30;99.90
24226;DHT22;51462;51.422;5.514;2023-08-24T09:15:09;23.20;99.90
24226;DHT22;51462;51.422;5.514;2023-08-24T09:17:35;23.30;99.90
24226;DHT22;51462;51.422;5.514;2023-08-24T09:20:06;23.40;99.90
24226;DHT22;51462;51.422;5.514;2023-08-24T09:22:40;23.50;99.90
24226;DHT22;51462;51.422;5.514;2023-08-24T09:25:09;23.50;99.90
24226;DHT22;51462;51.422;5.514;2023-08-24T09:27:34;23.70;99.90
24226;DHT22;51462;51.422;5.514;2023-08-24T09:30:00;23.70;99.90
24226;DHT22;51462;51.422;5.514;2023-08-24T09:32:28;23.80;99.90
24226;DHT22;51462;51.422;5.514;2023-08-24T09:34:54;23.80;99.90
24226;DHT22;51462;51.422;5.514;2023-08-24T09:37:20;23.90;99.90
24226;DHT22;51462;51.422;5.514;2023-08-24T09:39:45;24.00;99.90
24226;DHT22;51462;51.422;5.514;2023-08-24T09:42:11;24.00;99.90
24226;DHT22;51462;51.422;5.514;2023-08-24T09:44:37;23.90;99.90
24226;DHT22;51462;51.422;5.514;2023-08-24T09:47:08;23.90;99.90
24226;DHT22;51462;51.422;5.514;2023-08-24T09:49:34;23.70;99.90
24226;DHT22;51462;51.422;5.514;2023-08-24T09:51:59;23.70;99.90
24226;DHT22;51462;51.422;5.514;2023-08-24T09:54:28;23.90;99.90
24226;DHT22;51462;51.422;5.514;2023-08-24T09:56:56;23.90;99.90
24226;DHT22;51462;51.422;5.514;2023-08-24T09:59:24;24.10;99.90
24226;DHT22;51462;51.422;5.514;2023-08-24T10:01:51;24.10;99.90
24226;DHT22;51462;51.422;5.514;2023-08-24T10:04:24;24.20;99.90
24226;DHT22;51462;51.422;5.514;2023-08-24T10:06:56;24.30;99.90
24226;DHT22;51462;51.422;5.514;2023-08-24T10:09:28;24.30;99.90
24226;DHT22;51462;51.422;5.514;2023-08-24T10:11:56;24.30;99.90
24226;DHT22;51462;51.422;5.514;2023-08-24T10:14:44;24.30;99.90
24226;DHT22;51462;51.422;5.514;2023-08-24T10:17:11;24.30;99.90
24226;DHT22;51462;51.422;5.514;2023-08-24T10:19:37;24.20;99.90
24226;DHT22;51462;51.422;5.514;2023-08-24T10:22:03;24.00;99.90
24226;DHT22;51462;51.422;5.514;2023-08-24T10:24:29;24.10;99.90
24226;DHT22;51462;51.422;5.514;2023-08-24T10:26:54;24.30;99.90
24226;DHT22;51462;51.422;5.514;2023-08-24T10:29:20;24.10;99.90
24226;DHT22;51462;51.422;5.514;2023-08-24T10:31:46;24.20;99.90
24226;DHT22;51462;51.422;5.514;2023-08-24T10:34:11;24.50;99.90
24226;DHT22;51462;51.422;5.514;2023-08-24T10:36:40;24.60;99.90
24226;DHT22;51462;51.422;5.514;2023-08-24T10:39:06;24.50;99.90
24226;DHT22;51462;51.422;5.514;2023-08-24T10:41:47;24.40;99.90
24226;DHT22;51462;51.422;5.514;2023-08-24T10:44:19;24.50;99.90
24226;DHT22;51462;51.422;5.514;2023-08-24T10:46:45;24.40;99.90
24226;DHT22;51462;51.422;5.514;2023-08-24T10:49:31;24.40;99.90
24226;DHT22;51462;51.422;5.514;2023-08-24T10:51:57;24.40;99.90
24226;DHT22;51462;51.422;5.514;2023-08-24T10:54:31;24.40;99.90
24226;DHT22;51462;51.422;5.514;2023-08-24T10:56:57;24.40;99.90
24226;DHT22;51462;51.422;5.514;2023-08-24T10:59:29;24.30;99.90
24226;DHT22;51462;51.422;5.514;2023-08-24T11:01:59;24.20;99.90
24226;DHT22;51462;51.422;5.514;2023-08-24T11:04:26;24.30;99.90
24226;DHT22;51462;51.422;5.514;2023-08-24T11:09:22;24.30;99.90
24226;DHT22;51462;51.422;5.514;2023-08-24T11:11:57;24.20;99.90
24226;DHT22;51462;51.422;5.514;2023-08-24T11:14:23;24.30;99.90
24226;DHT22;51462;51.422;5.514;2023-08-24T11:16:51;24.20;99.90
24226;DHT22;51462;51.422;5.514;2023-08-24T11:19:16;24.30;99.90
24226;DHT22;51462;51.422;5.514;2023-08-24T11:21:43;24.20;99.90
24226;DHT22;51462;51.422;5.514;2023-08-24T11:24:09;24.20;99.90
24226;DHT22;51462;51.422;5.514;2023-08-24T11:26:39;24.20;99.90
24226;DHT22;51462;51.422;5.514;2023-08-24T11:29:05;24.30;99.90
24226;DHT22;51462;51.422;5.514;2023-08-24T11:31:31;24.20;99.90
24226;DHT22;51462;51.422;5.514;2023-08-24T11:33:57;24.20;99.90
24226;DHT22;51462;51.422;5.514;2023-08-24T11:36:23;24.20;99.90
24226;DHT22;51462;51.422;5.514;2023-08-24T11:38:49;24.10;99.90
24226;DHT22;51462;51.422;5.514;2023-08-24T11:41:16;24.00;99.90
24226;DHT22;51462;51.422;5.514;2023-08-24T11:43:44;24.10;99.90
24226;DHT22;51462;51.422;5.514;2023-08-24T11:46:10;24.20;99.90
24226;DHT22;51462;51.422;5.514;2023-08-24T11:48:37;24.10;99.90
24226;DHT22;51462;51.422;5.514;2023-08-24T11:51:07;24.20;99.90
24226;DHT22;51462;51.422;5.514;2023-08-24T11:53:36;24.20;99.90
24226;DHT22;51462;51.422;5.514;2023-08-24T11:56:02;24.00;99.90
24226;DHT22;51462;51.422;5.514;2023-08-24T11:58:28;24.00;99.90
24226;DHT22;51462;51.422;5.514;2023-08-24T12:00:53;24.00;99.90
24226;DHT22;51462;51.422;5.514;2023-08-24T12:03:19;24.00;99.90
24226;DHT22;51462;51.422;5.514;2023-08-24T12:05:44;24.00;99.90
24226;DHT22;51462;51.422;5.514;2023-08-24T12:08:11;24.10;99.90
24226;DHT22;51462;51.422;5.514;2023-08-24T12:10:41;24.30;99.90
24226;DHT22;51462;51.422;5.514;2023-08-24T12:13:06;24.40;99.90
24226;DHT22;51462;51.422;5.514;2023-08-24T12:15:35;24.40;99.90
24226;DHT22;51462;51.422;5.514;2023-08-24T12:18:11;24.50;99.90
24226;DHT22;51462;51.422;5.514;2023-08-24T12:20:36;24.20;99.90
24226;DHT22;51462;51.422;5.514;2023-08-24T12:23:02;24.30;99.90
24226;DHT22;51462;51.422;5.514;2023-08-24T12:25:28;24.30;99.90
24226;DHT22;51462;51.422;5.514;2023-08-24T12:28:09;24.40;99.90
24226;DHT22;51462;51.422;5.514;2023-08-24T12:30:45;24.50;99.90
24226;DHT22;51462;51.422;5.514;2023-08-24T12:33:20;24.60;99.90
24226;DHT22;51462;51.422;5.514;2023-08-24T12:35:46;24.60;99.90
24226;DHT22;51462;51.422;5.514;2023-08-24T12:38:11;24.50;99.90
24226;DHT22;51462;51.422;5.514;2023-08-24T12:40:37;24.60;99.90
24226;DHT22;51462;51.422;5.514;2023-08-24T12:43:02;24.60;99.90
24226;DHT22;51462;51.422;5.514;2023-08-24T12:45:28;24.70;99.90
24226;DHT22;51462;51.422;5.514;2023-08-24T12:47:53;24.70;99.90
24226;DHT22;51462;51.422;5.514;2023-08-24T12:50:19;24.70;99.90
24226;DHT22;51462;51.422;5.514;2023-08-24T12:52:44;24.70;99.90
24226;DHT22;51462;51.422;5.514;2023-08-24T12:55:10;24.60;99.90
24226;DHT22;51462;51.422;5.514;2023-08-24T12:57:35;24.60;99.90
24226;DHT22;51462;51.422;5.514;2023-08-24T13:00:01;24.60;99.90
24226;DHT22;51462;51.422;5.514;2023-08-24T13:02:26;24.70;99.90
24226;DHT22;51462;51.422;5.514;2023-08-24T13:04:52;24.60;99.90
24226;DHT22;51462;51.422;5.514;2023-08-24T13:07:17;24.60;99.90
24226;DHT22;51462;51.422;5.514;2023-08-24T13:09:43;24.60;99.90
24226;DHT22;51462;51.422;5.514;2023-08-24T13:12:08;24.60;99.90
24226;DHT22;51462;51.422;5.514;2023-08-24T13:14:34;24.60;99.90
24226;DHT22;51462;51.422;5.514;2023-08-24T13:16:59;24.60;99.90
24226;DHT22;51462;51.422;5.514;2023-08-24T13:19:25;24.60;99.90
24226;DHT22;51462;51.422;5.514;2023-08-24T13:21:50;24.50;99.90
24226;DHT22;51462;51.422;5.514;2023-08-24T13:24:16;24.60;99.90
24226;DHT22;51462;51.422;5.514;2023-08-24T13:26:41;24.60;99.90
24226;DHT22;51462;51.422;5.514;2023-08-24T13:29:07;24.60;99.90
24226;DHT22;51462;51.422;5.514;2023-08-24T13:31:32;24.50;99.90
24226;DHT22;51462;51.422;5.514;2023-08-24T13:33:58;24.60;99.90
24226;DHT22;51462;51.422;5.514;2023-08-24T13:36:23;24.50;99.90
24226;DHT22;51462;51.422;5.514;2023-08-24T13:38:48;24.30;99.90
24226;DHT22;51462;51.422;5.514;2023-08-24T13:41:15;24.30;99.90
24226;DHT22;51462;51.422;5.514;2023-08-24T13:43:40;24.40;99.90
24226;DHT22;51462;51.422;5.514;2023-08-24T13:46:07;24.40;99.90
24226;DHT22;51462;51.422;5.514;2023-08-24T13:48:32;24.30;99.90
24226;DHT22;51462;51.422;5.514;2023-08-24T13:51:01;24.30;99.90
24226;DHT22;51462;51.422;5.514;2023-08-24T13:53:26;24.20;99.90
24226;DHT22;51462;51.422;5.514;2023-08-24T13:55:52;24.20;99.90
24226;DHT22;51462;51.422;5.514;2023-08-24T13:58:17;24.20;99.90
24226;DHT22;51462;51.422;5.514;2023-08-24T14:00:43;24.20;99.90
24226;DHT22;51462;51.422;5.514;2023-08-24T14:03:09;24.20;99.90
24226;DHT22;51462;51.422;5.514;2023-08-24T14:05:38;24.20;99.90
24226;DHT22;51462;51.422;5.514;2023-08-24T14:08:04;24.10;99.90
24226;DHT22;51462;51.422;5.514;2023-08-24T14:10:29;24.10;99.90
24226;DHT22;51462;51.422;5.514;2023-08-24T14:12:55;24.10;99.90
24226;DHT22;51462;51.422;5.514;2023-08-24T14:15:20;24.00;99.90
24226;DHT22;51462;51.422;5.514;2023-08-24T14:17:46;24.00;99.90
24226;DHT22;51462;51.422;5.514;2023-08-24T14:20:11;24.00;99.90
24226;DHT22;51462;51.422;5.514;2023-08-24T14:22:38;24.00;99.90
24226;DHT22;51462;51.422;5.514;2023-08-24T14:25:03;23.90;99.90
24226;DHT22;51462;51.422;5.514;2023-08-24T14:27:29;23.90;99.90
24226;DHT22;51462;51.422;5.514;2023-08-24T14:29:54;23.90;99.90
24226;DHT22;51462;51.422;5.514;2023-08-24T14:32:20;23.90;99.90
24226;DHT22;51462;51.422;5.514;2023-08-24T14:34:48;23.90;99.90
24226;DHT22;51462;51.422;5.514;2023-08-24T14:37:14;23.90;99.90
24226;DHT22;51462;51.422;5.514;2023-08-24T14:39:39;23.90;99.90
24226;DHT22;51462;51.422;5.514;2023-08-24T14:42:05;23.80;99.90
24226;DHT22;51462;51.422;5.514;2023-08-24T14:44:31;23.80;99.90
24226;DHT22;51462;51.422;5.514;2023-08-24T14:46:56;23.80;99.90
24226;DHT22;51462;51.422;5.514;2023-08-24T14:49:21;23.70;99.90
24226;DHT22;51462;51.422;5.514;2023-08-24T14:51:47;23.80;99.90
24226;DHT22;51462;51.422;5.514;2023-08-24T14:54:13;23.80;99.90
24226;DHT22;51462;51.422;5.514;2023-08-24T14:56:40;23.80;99.90
24226;DHT22;51462;51.422;5.514;2023-08-24T14:59:05;23.80;99.90
24226;DHT22;51462;51.422;5.514;2023-08-24T15:01:31;23.80;99.90
24226;DHT22;51462;51.422;5.514;2023-08-24T15:03:56;23.80;99.90
24226;DHT22;51462;51.422;5.514;2023-08-24T15:06:22;23.70;99.90
24226;DHT22;51462;51.422;5.514;2023-08-24T15:08:47;23.70;99.90
24226;DHT22;51462;51.422;5.514;2023-08-24T15:11:14;23.70;99.90
24226;DHT22;51462;51.422;5.514;2023-08-24T15:13:39;23.60;99.90
24226;DHT22;51462;51.422;5.514;2023-08-24T15:16:05;23.60;99.90
24226;DHT22;51462;51.422;5.514;2023-08-24T15:18:30;23.70;99.90
24226;DHT22;51462;51.422;5.514;2023-08-24T15:20:56;23.60;99.90
24226;DHT22;51462;51.422;5.514;2023-08-24T15:23:22;23.60;99.90
24226;DHT22;51462;51.422;5.514;2023-08-24T15:25:48;23.60;99.90
24226;DHT22;51462;51.422;5.514;2023-08-24T15:28:14;23.50;99.90
24226;DHT22;51462;51.422;5.514;2023-08-24T15:30:46;23.50;99.90
24226;DHT22;51462;51.422;5.514;2023-08-24T15:33:11;23.50;99.90